Airfield :
LOGIN :

Register | Disclaimer

   EN    FR    IT 

 










Legend :    VFR   Marginal VFR   IFR   Intensive IFR   Very Intensive IFR
Visi :
Ceiling :
>= 8 km
>= 3000ft
5 to 8 km
1000 to 3000 ft
1500m to 5 km
500 to 1000 ft
800 to 1500m
200 to 500 ft
< 800m
< 200 ft
Symbols :   Thunderstorms  Fog  Heavy snow  Heavy precipitations  Wind > 20 kt
SIGMETs :     Misc.  Thunderstorms  Icing  Turbulence  Mountain Waves  Volcanic Ashes







- Airport Elevation : 56 ft
- IATA code : ILY
- Download approach charts


EGPI - Islay

CURRENT METAR :
  • 181020Z 17014KT 9999 -RA SCT031 SCT049 10/08 Q0990

EXPIRED METARs :
  • 180950Z 17013KT 130V190 9999 FEW014 SCT038 10/09 Q0989
  • 180920Z 17014KT 9999 BKN049 10/08 Q0989
  • 180850Z 18012KT 140V210 9999 -RA BKN049 09/08 Q0989
  • 180820Z 18014KT 140V210 9999 RADZ FEW010 BKN037 09/08 Q0988
  • 180750Z AUTO 18018KT 3800 -RASN SCT009/// BKN042/// 08/07 Q0988
  • 180720Z AUTO 15036G49KT 5000 -RADZ BKN009/// BKN016/// 11/10 Q0986

TAF AMD TAF EGPI
Valid from the 18 at 09:00 until the 18 at 18:00 UTC


180925Z 1809/1818 15030G43KT 9999 SCT025
BECMG 1809/1812 18012KT
TEMPO 1809/1813 6000 RA BKN008
PROB30
TEMPO 1809/1811 4000 +RA
TEMPO 1813/1818 19015G25KT
No reported NOTAMs for that airfield.
3 SIGMETs reported for the Scottish FIR (EGPX) :
 
Severe mountain waves
EGPX SIGMET 06 VALID 180700/181100 EGRR
EGPX SCOTTISH FIR SEV MTW FCST WI N5500 W00530 - N5355 W00530 - N5425 W00810 - N5507 W00713 - N5520 W00655 - N5756 W00740 - N6100 W00047 - N5500 W00015 - N5500 W00530 FL030/250 STNR NC=
Severe turbulence
EGPX SIGMET 05 VALID 180700/181100 EGRR
EGPX SCOTTISH FIR SEV TURB FCST WI N5500 W00247 - N5500 W00530 - N5355 W00530 - N5425 W00810 - N5520 W00655 - N5453 W00850 - N6100 W00756 - N6100 E00000 - N5928 E00054 - N5500 W00247 SFC/FL060 MOV E 10KT NC=
Severe turbulence
EGPX SIGMET 04 VALID 180700/181100 EGRR
EGPX SCOTTISH FIR SEV TURB FCST WI N5434 W01000 - N6100 W01000 - N6100 W00556 - N5445 W00901 - N5434 W01000 FL220/350 MOV E 10KT WKN=



MET'MAP, your aeronautical weather chart ! - Copyright ORBIFLY December 2007 - Disclaimer

ORBIFLY MET'MAP TEAM :

Programming & Development : Alexandra Zaïnal
Concept & Development : Baudouin d'Aumeries
Co-Development & Prog : Marc-Olivier Méhu
Technical & hardware support : Manuel Goepfert

Contact : metmap@orbifly.com




SOURCES & CREDITS :

   NOAA